createdAt,value
2022-12-17T00:03:57.273Z,32.67
2022-12-17T00:08:30.326Z,30.27
2022-12-17T00:12:51.914Z,28.10
2022-12-17T00:17:21.721Z,27.80
2022-12-17T00:21:45.494Z,30.53
2022-12-17T00:30:50.196Z,28.87
2022-12-17T00:35:11.423Z,30.57
2022-12-17T00:39:44.149Z,30.10
2022-12-17T00:44:09.766Z,29.73
2022-12-17T00:48:44.451Z,31.10
2022-12-17T00:53:26.969Z,30.53
2022-12-17T00:57:49.244Z,27.47
2022-12-17T01:02:09.486Z,28.07
2022-12-17T01:06:31.026Z,31.77
2022-12-17T01:10:52.493Z,28.40
2022-12-17T01:15:46.025Z,29.00
2022-12-17T01:20:06.308Z,25.27
2022-12-17T01:24:27.454Z,28.33
2022-12-17T01:28:51.313Z,28.70
2022-12-17T01:33:17.970Z,28.60
2022-12-17T01:37:39.801Z,27.40
2022-12-17T01:42:01.622Z,31.07
2022-12-17T01:51:18.672Z,27.60
2022-12-17T01:55:41.674Z,30.03
2022-12-17T02:00:22.635Z,28.23
2022-12-17T02:04:44.300Z,36.30
2022-12-17T02:09:40.596Z,39.97
2022-12-17T02:19:32.879Z,32.90
2022-12-17T02:29:18.923Z,34.23
2022-12-17T02:33:45.340Z,34.37
2022-12-17T02:38:20.259Z,35.77
2022-12-17T02:42:47.099Z,37.87
2022-12-17T02:47:08.629Z,35.70
2022-12-17T02:51:31.299Z,34.47
2022-12-17T02:56:00.792Z,31.63
2022-12-17T03:00:33.875Z,33.07
2022-12-17T03:05:44.057Z,30.03
2022-12-17T03:10:06.068Z,28.20
2022-12-17T03:14:37.031Z,29.70
2022-12-17T03:18:58.444Z,26.97
2022-12-17T03:23:25.127Z,27.93
2022-12-17T03:27:46.426Z,29.27
2022-12-17T03:32:20.768Z,31.63
2022-12-17T03:41:33.459Z,30.77
2022-12-17T03:45:54.053Z,28.57
2022-12-17T03:50:22.602Z,29.23
2022-12-17T03:55:29.437Z,28.23
2022-12-17T04:05:20.307Z,27.10
2022-12-17T04:09:41.144Z,26.53
2022-12-17T04:14:05.078Z,27.70
2022-12-17T04:18:29.711Z,28.70
2022-12-17T04:22:51.024Z,28.27
2022-12-17T04:27:11.819Z,30.67
2022-12-17T04:31:33.396Z,29.70
2022-12-17T04:35:56.376Z,28.63
2022-12-17T04:54:49.711Z,29.70
2022-12-17T04:59:16.802Z,32.83
2022-12-17T05:03:56.203Z,34.90
2022-12-17T05:13:47.866Z,35.00
2022-12-17T05:18:10.817Z,33.77
2022-12-17T05:22:35.251Z,37.97
2022-12-17T05:26:55.777Z,33.97
2022-12-17T05:31:24.215Z,32.73
2022-12-17T05:35:44.861Z,35.23
2022-12-17T05:40:12.276Z,35.83
2022-12-17T05:44:33.733Z,34.50
2022-12-17T05:48:54.675Z,38.40
2022-12-17T05:53:26.100Z,32.03
2022-12-17T05:57:57.818Z,37.77
2022-12-17T06:02:18.564Z,34.50
2022-12-17T06:06:39.946Z,35.10
2022-12-17T06:15:42.117Z,32.60
2022-12-17T06:20:03.527Z,31.87
2022-12-17T06:29:13.458Z,33.83
2022-12-17T06:33:40.754Z,33.30
2022-12-17T06:38:09.907Z,33.17
2022-12-17T06:42:37.673Z,31.50
2022-12-17T06:46:58.364Z,32.87
2022-12-17T06:51:18.700Z,31.90
2022-12-17T06:55:41.902Z,32.73
2022-12-17T07:00:05.380Z,33.47
2022-12-17T07:04:47.228Z,32.70
2022-12-17T07:09:10.549Z,31.23
2022-12-17T07:13:36.129Z,31.60
2022-12-17T07:18:04.292Z,29.80
2022-12-17T07:22:51.509Z,29.97
2022-12-17T07:27:14.797Z,31.73
2022-12-17T07:31:35.453Z,29.97
2022-12-17T07:35:58.849Z,30.50
2022-12-17T07:40:20.003Z,29.77
2022-12-17T07:44:44.197Z,31.50
2022-12-17T07:49:09.154Z,31.27
2022-12-17T07:58:30.182Z,30.20
2022-12-17T08:03:22.038Z,29.97
2022-12-17T08:12:37.008Z,31.50
2022-12-17T08:16:57.476Z,30.90
2022-12-17T08:21:21.263Z,30.47
2022-12-17T08:25:41.818Z,31.20
2022-12-17T08:30:02.256Z,29.60
2022-12-17T08:34:25.287Z,29.13
2022-12-17T08:38:46.941Z,27.47
2022-12-17T08:43:07.783Z,28.23
2022-12-17T08:47:28.309Z,28.63
2022-12-17T08:51:54.200Z,27.57
2022-12-17T08:57:07.768Z,25.67
2022-12-17T09:01:29.870Z,29.67
2022-12-17T09:05:52.191Z,24.67
2022-12-17T09:10:16.301Z,26.30
2022-12-17T09:14:39.612Z,24.03
2022-12-17T09:19:00.886Z,22.90
2022-12-17T09:23:21.245Z,24.97
2022-12-17T09:27:51.692Z,22.40
2022-12-17T09:32:12.144Z,21.63
2022-12-17T09:36:34.002Z,21.37
2022-12-17T09:40:59.555Z,20.67
2022-12-17T09:45:23.955Z,21.73
2022-12-17T09:49:48.364Z,20.80
2022-12-17T09:54:12.492Z,21.17
2022-12-17T09:58:42.928Z,20.40
2022-12-17T10:03:04.019Z,21.23
2022-12-17T10:07:33.300Z,21.03
2022-12-17T10:11:55.015Z,19.93
2022-12-17T10:16:15.724Z,21.33
2022-12-17T10:20:50.987Z,20.60
2022-12-17T10:25:11.567Z,18.53
2022-12-17T10:29:48.280Z,19.60
2022-12-17T10:34:25.005Z,21.33
2022-12-17T10:38:49.299Z,19.83
2022-12-17T10:43:23.193Z,18.50
2022-12-17T10:47:52.984Z,21.50
2022-12-17T10:52:19.141Z,19.60
2022-12-17T10:56:46.534Z,18.97
2022-12-17T11:01:20.530Z,21.40
2022-12-17T11:05:59.483Z,21.80
2022-12-17T11:10:24.820Z,19.00
2022-12-17T11:14:47.107Z,19.53
2022-12-17T11:19:15.488Z,21.30
2022-12-17T11:23:40.426Z,20.87
2022-12-17T11:28:10.519Z,21.60
2022-12-17T11:32:55.235Z,22.50
2022-12-17T11:37:44.717Z,20.47
2022-12-17T11:42:23.623Z,21.53
2022-12-17T11:46:58.364Z,22.10
2022-12-17T11:51:38.859Z,22.53
2022-12-17T11:56:02.903Z,21.27
2022-12-17T12:00:44.643Z,20.70
2022-12-17T12:05:27.673Z,21.93
2022-12-17T12:10:14.201Z,21.93
2022-12-17T12:15:07.142Z,20.37
2022-12-17T12:19:50.570Z,19.37
2022-12-17T12:24:22.344Z,20.83
2022-12-17T12:29:01.530Z,20.07
2022-12-17T12:34:05.388Z,19.00
2022-12-17T12:38:46.519Z,17.90
2022-12-17T12:43:18.872Z,16.13
2022-12-17T12:47:56.641Z,15.50
2022-12-17T12:52:18.742Z,16.53
2022-12-17T12:56:55.196Z,17.37
2022-12-17T13:01:26.789Z,16.20
2022-12-17T13:05:39.716Z,15.47
2022-12-17T13:09:52.324Z,17.77
2022-12-17T13:14:00.592Z,16.90
2022-12-17T13:18:37.481Z,15.33
2022-12-17T13:22:51.821Z,14.93
2022-12-17T13:26:54.768Z,14.83
2022-12-17T13:31:05.888Z,14.77
2022-12-17T13:35:30.422Z,13.43
2022-12-17T13:39:54.489Z,11.27
2022-12-17T13:44:19.060Z,10.67
2022-12-17T13:48:26.750Z,10.17
2022-12-17T13:52:33.264Z,9.53
2022-12-17T13:56:52.047Z,9.60
2022-12-17T14:01:11.838Z,10.53
2022-12-17T14:05:44.670Z,10.47
2022-12-17T14:09:51.139Z,11.50
2022-12-17T14:14:01.678Z,10.90
2022-12-17T14:18:04.366Z,11.37
2022-12-17T14:22:06.704Z,11.47
2022-12-17T14:26:14.051Z,12.20
2022-12-17T14:30:31.141Z,11.70
2022-12-17T14:34:42.795Z,12.17
2022-12-17T14:39:36.346Z,11.60
2022-12-17T14:43:47.180Z,11.67
2022-12-17T14:48:02.161Z,13.50
2022-12-17T14:52:21.111Z,12.33
2022-12-17T14:56:24.850Z,11.10
2022-12-17T15:00:35.199Z,12.50
2022-12-17T15:04:38.703Z,11.83
2022-12-17T15:08:42.984Z,11.60
2022-12-17T15:12:45.488Z,10.60
2022-12-17T15:16:48.750Z,10.90
2022-12-17T15:20:50.912Z,10.90
2022-12-17T15:24:53.189Z,10.93
2022-12-17T15:29:05.806Z,13.37
2022-12-17T15:33:17.695Z,11.00
2022-12-17T15:37:25.298Z,12.13
2022-12-17T15:41:49.098Z,10.87
2022-12-17T15:45:52.886Z,11.60
2022-12-17T15:49:54.892Z,10.67
2022-12-17T15:53:57.195Z,10.67
2022-12-17T15:58:02.994Z,9.80
2022-12-17T16:02:05.494Z,10.50
2022-12-17T16:06:09.118Z,10.67
2022-12-17T16:10:22.682Z,11.00
2022-12-17T16:14:25.267Z,11.60
2022-12-17T16:18:36.046Z,11.27
2022-12-17T16:22:48.697Z,11.07
2022-12-17T16:27:04.363Z,9.80
2022-12-17T16:31:10.893Z,9.63
2022-12-17T16:35:14.519Z,10.40
2022-12-17T16:39:19.685Z,9.70
2022-12-17T16:43:28.673Z,10.47
2022-12-17T16:47:30.677Z,10.40
2022-12-17T16:51:33.126Z,11.03
2022-12-17T16:55:47.214Z,10.07
2022-12-17T16:59:53.335Z,9.60
2022-12-17T17:03:59.437Z,6.73
2022-12-17T17:08:06.982Z,6.40
2022-12-17T17:12:17.261Z,7.17
2022-12-17T17:16:32.848Z,6.80
2022-12-17T17:20:35.636Z,6.30
2022-12-17T17:24:38.506Z,7.37
2022-12-17T17:28:46.683Z,6.93
2022-12-17T17:32:49.673Z,5.63
2022-12-17T17:36:52.317Z,4.93
2022-12-17T17:41:00.716Z,5.60
2022-12-17T17:45:09.078Z,4.80
2022-12-17T17:49:13.251Z,5.47
2022-12-17T17:53:18.179Z,4.43
2022-12-17T17:57:26.858Z,4.77
2022-12-17T18:01:34.706Z,4.50
2022-12-17T18:05:53.106Z,4.13
2022-12-17T18:09:56.774Z,4.70
2022-12-17T18:14:06.592Z,4.83
2022-12-17T18:18:21.172Z,4.00
2022-12-17T18:31:10.884Z,4.40
2022-12-17T18:35:47.190Z,4.90
2022-12-17T18:39:49.365Z,3.73
2022-12-17T18:43:52.016Z,3.47
2022-12-17T18:47:55.183Z,3.50
2022-12-17T18:51:59.764Z,3.60
2022-12-17T18:56:31.729Z,3.33
2022-12-17T19:00:39.033Z,3.67
2022-12-17T19:04:41.697Z,3.03
2022-12-17T19:08:45.575Z,4.20
2022-12-17T19:12:56.833Z,3.57
2022-12-17T19:16:58.964Z,3.90
2022-12-17T19:25:31.259Z,3.27
2022-12-17T19:29:35.122Z,3.50
2022-12-17T19:33:39.930Z,3.27
2022-12-17T19:37:41.978Z,3.67
2022-12-17T19:41:44.712Z,3.33
2022-12-17T19:50:09.746Z,3.57
2022-12-17T19:54:15.007Z,3.10
2022-12-17T19:58:17.595Z,3.23
2022-12-17T20:02:22.206Z,3.70
2022-12-17T20:06:37.723Z,3.00
2022-12-17T20:15:01.207Z,2.17
2022-12-17T20:19:18.415Z,1.97
2022-12-17T20:23:21.188Z,1.87
2022-12-17T20:27:29.967Z,2.23
2022-12-17T20:31:37.795Z,2.30
2022-12-17T20:36:08.606Z,2.30
2022-12-17T20:40:11.373Z,2.17
2022-12-17T20:44:18.472Z,1.73
2022-12-17T20:48:24.596Z,2.27
2022-12-17T20:52:27.365Z,2.40
2022-12-17T20:56:31.788Z,2.33
2022-12-17T21:00:34.320Z,2.00
2022-12-17T21:04:36.249Z,2.63
2022-12-17T21:08:40.469Z,3.30
2022-12-17T21:13:30.325Z,2.30
2022-12-17T21:17:33.453Z,2.00
2022-12-17T21:21:38.657Z,4.50
2022-12-17T21:25:41.718Z,3.43
2022-12-17T21:30:15.835Z,4.10
2022-12-17T21:34:22.703Z,4.30
2022-12-17T21:38:25.195Z,4.23
2022-12-17T21:42:48.309Z,3.60
2022-12-17T21:47:03.338Z,3.27
2022-12-17T21:51:07.456Z,3.93
2022-12-17T21:55:09.781Z,4.30
2022-12-17T21:59:12.462Z,4.80
2022-12-17T22:03:42.682Z,4.27
2022-12-17T22:07:51.915Z,3.40
2022-12-17T22:12:16.089Z,3.90
2022-12-17T22:16:18.279Z,3.30
2022-12-17T22:20:30.969Z,4.03
2022-12-17T22:24:41.906Z,3.60
2022-12-17T22:28:50.270Z,4.10
2022-12-17T22:33:05.665Z,3.77
2022-12-17T22:41:39.024Z,3.90
2022-12-17T22:44:48.775Z,3.57
2022-12-17T22:51:44.683Z,3.17
2022-12-17T22:55:49.284Z,3.77
2022-12-17T23:00:01.177Z,4.00
2022-12-17T23:04:15.964Z,3.57
2022-12-17T23:08:47.518Z,3.60
2022-12-17T23:17:24.495Z,3.53
2022-12-17T23:21:28.351Z,3.17
2022-12-17T23:25:30.913Z,4.13
2022-12-17T23:29:32.958Z,2.97
2022-12-17T23:33:38.814Z,3.33
2022-12-17T23:37:41.371Z,3.13
2022-12-17T23:41:43.818Z,2.73
2022-12-17T23:45:45.891Z,3.43
2022-12-17T23:49:48.449Z,3.30
2022-12-17T23:53:55.414Z,3.10
2022-12-17T23:58:01.107Z,4.00
